createdAt,value
2018-08-28T00:01:31.713Z,3.20
2018-08-28T00:04:00.193Z,3.23
2018-08-28T00:06:28.700Z,3.40
2018-08-28T00:08:57.132Z,2.20
2018-08-28T00:11:25.697Z,2.27
2018-08-28T00:13:54.204Z,2.50
2018-08-28T00:16:23.392Z,2.60
2018-08-28T00:18:52.395Z,2.30
2018-08-28T00:21:20.945Z,3.07
2018-08-28T00:23:49.944Z,2.50
2018-08-28T00:26:18.415Z,2.07
2018-08-28T00:28:46.881Z,2.50
2018-08-28T00:31:15.353Z,2.83
2018-08-28T00:33:43.831Z,2.50
2018-08-28T00:36:12.405Z,2.27
2018-08-28T00:38:41.023Z,2.67
2018-08-28T00:41:09.495Z,2.53
2018-08-28T00:43:37.965Z,2.90
2018-08-28T00:46:06.809Z,3.30
2018-08-28T00:48:35.239Z,2.77
2018-08-28T00:51:03.693Z,2.93
2018-08-28T00:53:32.251Z,2.43
2018-08-28T00:56:00.681Z,3.30
2018-08-28T00:58:29.175Z,2.67
2018-08-28T01:00:57.604Z,2.63
2018-08-28T01:03:26.057Z,2.90
2018-08-28T01:05:54.484Z,3.03
2018-08-28T01:08:23.041Z,2.60
2018-08-28T01:10:51.522Z,3.93
2018-08-28T01:13:20.034Z,2.80
2018-08-28T01:15:48.543Z,2.67
2018-08-28T01:18:17.171Z,3.37
2018-08-28T01:20:45.728Z,2.90
2018-08-28T01:23:14.193Z,3.30
2018-08-28T01:25:42.649Z,3.00
2018-08-28T01:28:11.102Z,3.20
2018-08-28T01:30:39.616Z,3.20
2018-08-28T01:33:08.044Z,2.80
2018-08-28T01:35:36.516Z,2.53
2018-08-28T01:38:05.014Z,3.27
2018-08-28T01:40:33.580Z,3.17
2018-08-28T01:43:06.244Z,2.40
2018-08-28T01:45:34.652Z,2.47
2018-08-28T01:48:03.189Z,2.70
2018-08-28T01:50:32.381Z,2.90
2018-08-28T01:53:00.834Z,2.33
2018-08-28T01:55:29.334Z,2.50
2018-08-28T01:57:57.751Z,3.10
2018-08-28T02:00:26.318Z,2.87
2018-08-28T02:02:54.796Z,2.67
2018-08-28T02:05:23.275Z,2.90
2018-08-28T02:07:51.749Z,2.50
2018-08-28T02:10:20.304Z,2.37
2018-08-28T02:12:48.739Z,2.80
2018-08-28T02:15:17.497Z,2.07
2018-08-28T02:17:45.934Z,2.67
2018-08-28T02:20:14.384Z,2.60
2018-08-28T02:22:42.800Z,2.50
2018-08-28T02:25:11.283Z,2.80
2018-08-28T02:27:39.732Z,2.70
2018-08-28T02:30:08.165Z,3.33
2018-08-28T02:32:36.627Z,2.73
2018-08-28T02:35:05.059Z,2.70
2018-08-28T02:37:33.556Z,2.70
2018-08-28T02:40:02.026Z,2.90
2018-08-28T02:42:30.600Z,2.90
2018-08-28T02:44:59.034Z,2.70
2018-08-28T02:47:27.516Z,2.73
2018-08-28T02:49:55.929Z,2.90
2018-08-28T02:52:24.525Z,3.23
2018-08-28T02:54:53.036Z,3.10
2018-08-28T02:57:21.531Z,3.37
2018-08-28T02:59:50.173Z,3.00
2018-08-28T03:02:19.312Z,2.90
2018-08-28T03:04:47.933Z,3.57
2018-08-28T03:07:16.365Z,3.00
2018-08-28T03:09:44.828Z,2.80
2018-08-28T03:12:13.276Z,2.47
2018-08-28T03:14:42.197Z,2.63
2018-08-28T03:17:10.692Z,2.87
2018-08-28T03:19:39.135Z,3.33
2018-08-28T03:22:07.628Z,2.47
2018-08-28T03:24:36.081Z,2.73
2018-08-28T03:27:04.630Z,2.70
2018-08-28T03:29:33.053Z,3.53
2018-08-28T03:32:01.541Z,3.87
2018-08-28T03:34:29.981Z,3.37
2018-08-28T03:36:58.445Z,3.03
2018-08-28T03:39:27.545Z,3.23
2018-08-28T03:41:56.031Z,2.83
2018-08-28T03:44:24.512Z,2.90
2018-08-28T03:46:53.060Z,2.70
2018-08-28T03:49:21.501Z,2.90
2018-08-28T03:51:49.960Z,3.10
2018-08-28T03:54:18.437Z,2.87
2018-08-28T03:56:46.909Z,2.77
2018-08-28T03:59:15.752Z,3.40
2018-08-28T04:01:44.341Z,3.60
2018-08-28T04:04:12.916Z,3.07
2018-08-28T04:06:41.522Z,2.70
2018-08-28T04:09:10.632Z,2.93
2018-08-28T04:11:39.303Z,3.20
2018-08-28T04:14:07.742Z,2.93
2018-08-28T04:16:36.156Z,2.83
2018-08-28T04:19:04.832Z,3.33
2018-08-28T04:21:33.272Z,3.17
2018-08-28T04:24:01.823Z,3.10
2018-08-28T04:26:30.290Z,2.77
2018-08-28T04:28:58.761Z,3.40
2018-08-28T04:31:27.212Z,3.10
2018-08-28T04:33:55.980Z,3.77
2018-08-28T04:36:24.452Z,3.10
2018-08-28T04:38:52.897Z,3.20
2018-08-28T04:41:21.416Z,3.27
2018-08-28T04:43:49.832Z,2.90
2018-08-28T04:46:18.397Z,3.27
2018-08-28T04:48:46.840Z,3.17
2018-08-28T04:51:15.372Z,3.67
2018-08-28T04:53:43.844Z,2.90
2018-08-28T04:56:12.337Z,3.40
2018-08-28T04:58:41.541Z,2.73
2018-08-28T05:01:09.993Z,3.80
2018-08-28T05:03:38.468Z,3.70
2018-08-28T05:06:06.943Z,3.43
2018-08-28T05:08:35.509Z,3.10
2018-08-28T05:11:03.969Z,3.57
2018-08-28T05:13:32.423Z,4.33
2018-08-28T05:16:01.108Z,3.53
2018-08-28T05:18:29.404Z,3.00
2018-08-28T05:20:57.889Z,2.83
2018-08-28T05:23:26.321Z,3.40
2018-08-28T05:25:54.828Z,3.00
2018-08-28T05:28:23.380Z,3.03
2018-08-28T05:30:51.837Z,3.70
2018-08-28T05:33:20.348Z,4.17
2018-08-28T05:35:48.864Z,4.10
2018-08-28T05:38:17.466Z,4.70
2018-08-28T05:40:45.886Z,4.53
2018-08-28T05:43:14.355Z,4.80
2018-08-28T05:45:42.796Z,4.20
2018-08-28T05:48:11.312Z,4.60
2018-08-28T05:50:39.741Z,4.10
2018-08-28T05:53:08.354Z,4.13
2018-08-28T05:55:36.836Z,4.90
2018-08-28T05:58:05.304Z,4.57
2018-08-28T06:00:33.860Z,4.70
2018-08-28T06:03:03.183Z,4.60
2018-08-28T06:05:31.899Z,4.80
2018-08-28T06:08:00.476Z,4.50
2018-08-28T06:10:28.961Z,4.63
2018-08-28T06:12:57.403Z,4.80
2018-08-28T06:15:25.929Z,4.27
2018-08-28T06:17:54.558Z,4.10
2018-08-28T06:20:23.012Z,4.33
2018-08-28T06:22:51.515Z,4.80
2018-08-28T06:25:20.373Z,4.43
2018-08-28T06:27:48.829Z,4.30
2018-08-28T06:30:18.186Z,4.00
2018-08-28T06:32:46.645Z,4.83
2018-08-28T06:35:15.101Z,5.23
2018-08-28T06:37:43.504Z,5.10
2018-08-28T06:40:12.092Z,4.67
2018-08-28T06:42:40.520Z,4.90
2018-08-28T06:45:09.033Z,4.60
2018-08-28T06:47:37.516Z,5.13
2018-08-28T06:50:07.181Z,5.77
2018-08-28T06:52:35.736Z,4.70
2018-08-28T06:55:04.766Z,5.07
2018-08-28T06:57:33.222Z,4.60
2018-08-28T07:00:02.334Z,4.70
2018-08-28T07:02:30.999Z,5.87
2018-08-28T07:04:59.668Z,4.87
2018-08-28T07:07:28.280Z,5.20
2018-08-28T07:09:56.815Z,5.40
2018-08-28T07:12:25.564Z,6.37
2018-08-28T07:14:54.929Z,6.33
2018-08-28T07:17:23.530Z,7.20
2018-08-28T07:19:51.980Z,5.77
2018-08-28T07:22:20.467Z,6.50
2018-08-28T07:24:48.973Z,6.40
2018-08-28T07:27:17.467Z,6.07
2018-08-28T07:29:45.914Z,6.50
2018-08-28T07:32:14.444Z,7.10
2018-08-28T07:34:42.877Z,6.37
2018-08-28T07:37:11.309Z,6.10
2018-08-28T07:39:40.109Z,5.97
2018-08-28T07:42:08.538Z,5.67
2018-08-28T07:44:37.074Z,5.70
2018-08-28T07:47:05.688Z,5.97
2018-08-28T07:49:34.240Z,6.13
2018-08-28T07:52:02.814Z,6.37
2018-08-28T07:54:31.276Z,6.50
2018-08-28T07:56:59.725Z,6.73
2018-08-28T07:59:28.208Z,6.33
2018-08-28T08:01:56.832Z,6.37
2018-08-28T08:04:25.325Z,6.90
2018-08-28T08:06:53.765Z,7.57
2018-08-28T08:09:22.186Z,6.20
2018-08-28T08:11:50.661Z,6.67
2018-08-28T08:14:19.096Z,6.50
2018-08-28T08:16:47.592Z,6.57
2018-08-28T08:19:16.036Z,6.90
2018-08-28T08:21:44.780Z,6.63
2018-08-28T08:24:13.604Z,6.80
2018-08-28T08:26:42.080Z,7.10
2018-08-28T08:29:11.235Z,7.00
2018-08-28T08:31:39.776Z,7.33
2018-08-28T08:34:08.823Z,7.73
2018-08-28T08:36:37.341Z,7.40
2018-08-28T08:39:08.145Z,7.70
2018-08-28T08:41:36.785Z,6.60
2018-08-28T08:44:05.739Z,7.53
2018-08-28T08:46:34.220Z,7.87
2018-08-28T08:49:02.805Z,7.40
2018-08-28T08:51:31.276Z,7.50
2018-08-28T08:53:59.754Z,7.90
2018-08-28T08:56:28.274Z,8.20
2018-08-28T08:58:56.737Z,8.67
2018-08-28T09:01:25.326Z,6.70
2018-08-28T09:03:53.822Z,8.07
2018-08-28T09:06:22.375Z,7.90
2018-08-28T09:08:50.878Z,8.70
2018-08-28T09:11:19.493Z,8.40
2018-08-28T09:13:47.985Z,7.90
2018-08-28T09:16:16.528Z,8.70
2018-08-28T09:18:45.097Z,8.20
2018-08-28T09:21:13.615Z,7.70
2018-08-28T09:23:42.104Z,8.60
2018-08-28T09:26:10.605Z,8.50
2018-08-28T09:28:39.098Z,8.27
2018-08-28T09:31:08.430Z,7.47
2018-08-28T09:33:36.885Z,8.27
2018-08-28T09:36:05.369Z,8.03
2018-08-28T09:38:34.467Z,9.57
2018-08-28T09:41:02.939Z,9.20
2018-08-28T09:43:31.455Z,9.70
2018-08-28T09:46:00.598Z,10.00
2018-08-28T09:48:30.019Z,8.63
2018-08-28T09:50:58.520Z,9.70
2018-08-28T09:53:26.927Z,10.17
2018-08-28T09:55:55.420Z,10.17
2018-08-28T09:58:24.074Z,9.97
2018-08-28T10:00:57.813Z,9.50
2018-08-28T10:03:26.371Z,9.87
2018-08-28T10:05:54.965Z,10.60
2018-08-28T10:08:23.429Z,10.33
2018-08-28T10:10:52.061Z,10.70
2018-08-28T10:13:20.517Z,10.47
2018-08-28T10:15:49.161Z,10.73
2018-08-28T10:18:17.796Z,11.70
2018-08-28T10:20:46.317Z,10.93
2018-08-28T10:23:14.832Z,11.07
2018-08-28T10:25:43.324Z,10.77
2018-08-28T10:28:11.949Z,10.60
2018-08-28T10:30:40.446Z,10.53
2018-08-28T10:33:09.067Z,10.00
2018-08-28T10:35:37.585Z,11.67
2018-08-28T10:38:06.421Z,11.10
2018-08-28T10:40:35.656Z,9.57
2018-08-28T10:43:04.173Z,10.23
2018-08-28T10:45:32.733Z,10.17
2018-08-28T10:48:01.197Z,10.47
2018-08-28T10:50:29.657Z,10.33
2018-08-28T10:52:58.843Z,10.20
2018-08-28T10:55:27.265Z,10.70
2018-08-28T10:57:55.811Z,10.07
2018-08-28T11:00:24.317Z,10.47
2018-08-28T11:02:52.821Z,10.27
2018-08-28T11:05:21.317Z,10.53
2018-08-28T11:07:49.880Z,10.90
2018-08-28T11:10:18.521Z,10.30
2018-08-28T11:12:46.985Z,11.50
2018-08-28T11:15:15.458Z,10.60
2018-08-28T11:17:43.953Z,10.67
2018-08-28T11:20:12.483Z,10.80
2018-08-28T11:22:40.901Z,11.17
2018-08-28T11:25:09.520Z,11.40
2018-08-28T11:27:37.992Z,12.00
2018-08-28T11:30:06.662Z,10.93
2018-08-28T11:32:35.886Z,10.93
2018-08-28T11:35:04.645Z,11.13
2018-08-28T11:37:33.197Z,11.40
2018-08-28T11:40:01.802Z,10.70
2018-08-28T11:42:30.517Z,10.80
2018-08-28T11:44:59.010Z,11.60
2018-08-28T11:47:27.508Z,10.33
2018-08-28T11:49:56.006Z,10.60
2018-08-28T11:52:24.518Z,10.90
2018-08-28T11:54:53.085Z,11.03
2018-08-28T11:57:21.661Z,11.60
2018-08-28T11:59:50.187Z,11.20
2018-08-28T12:02:18.580Z,10.63
2018-08-28T12:04:47.189Z,11.03
2018-08-28T12:07:15.660Z,11.20
2018-08-28T12:09:44.121Z,11.10
2018-08-28T12:12:12.869Z,10.50
2018-08-28T12:14:41.421Z,12.10
2018-08-28T12:17:10.000Z,10.20
2018-08-28T12:19:38.509Z,10.77
2018-08-28T12:22:07.116Z,10.57
2018-08-28T12:24:35.601Z,10.57
2018-08-28T12:27:04.141Z,12.17
2018-08-28T12:29:32.607Z,10.20
2018-08-28T12:32:01.216Z,10.97
2018-08-28T12:34:29.748Z,11.93
2018-08-28T12:36:58.306Z,11.67
2018-08-28T12:39:26.955Z,11.07
2018-08-28T12:41:55.624Z,13.10
2018-08-28T12:44:24.133Z,11.93
2018-08-28T12:46:52.652Z,12.83
2018-08-28T12:49:21.132Z,11.80
2018-08-28T12:51:49.764Z,12.10
2018-08-28T12:54:18.241Z,11.47
2018-08-28T12:56:46.812Z,11.13
2018-08-28T12:59:15.414Z,12.43
2018-08-28T13:01:43.872Z,12.47
2018-08-28T13:04:12.398Z,11.80
2018-08-28T13:06:40.901Z,12.43
2018-08-28T13:09:09.386Z,12.07
2018-08-28T13:11:38.486Z,12.23
2018-08-28T13:14:07.129Z,12.37
2018-08-28T13:16:35.578Z,11.70
2018-08-28T13:19:04.181Z,11.60
2018-08-28T13:21:32.833Z,11.63
2018-08-28T13:24:01.396Z,11.93
2018-08-28T13:26:29.863Z,12.30
2018-08-28T13:28:58.390Z,11.63
2018-08-28T13:31:27.487Z,11.77
2018-08-28T13:33:56.197Z,12.50
2018-08-28T13:36:24.785Z,11.73
2018-08-28T13:38:53.277Z,11.40
2018-08-28T13:41:21.804Z,11.03
2018-08-28T13:43:50.947Z,11.93
2018-08-28T13:46:19.840Z,12.00
2018-08-28T13:48:48.418Z,11.10
2018-08-28T13:51:16.944Z,10.63
2018-08-28T13:53:45.976Z,11.57
2018-08-28T13:56:14.725Z,10.93
2018-08-28T13:58:43.182Z,11.10
2018-08-28T14:01:12.056Z,11.07
2018-08-28T14:03:40.562Z,11.70
2018-08-28T14:06:09.730Z,12.20
2018-08-28T14:08:38.365Z,11.90
2018-08-28T14:11:06.974Z,11.93
2018-08-28T14:13:35.953Z,12.60
2018-08-28T14:16:04.597Z,10.67
2018-08-28T14:18:33.889Z,11.30
2018-08-28T14:21:02.388Z,11.90
2018-08-28T14:23:31.303Z,12.83
2018-08-28T14:25:59.875Z,11.67
2018-08-28T14:28:28.623Z,11.97
2018-08-28T14:30:57.129Z,10.97
2018-08-28T14:33:25.705Z,11.63
2018-08-28T14:35:54.242Z,10.70
2018-08-28T14:38:22.798Z,10.80
2018-08-28T14:40:51.402Z,11.10
2018-08-28T14:43:19.937Z,10.57
2018-08-28T14:45:48.444Z,10.97
2018-08-28T14:48:16.919Z,11.23
2018-08-28T14:50:45.518Z,11.23
2018-08-28T14:53:14.111Z,12.10
2018-08-28T14:55:42.905Z,10.87
2018-08-28T14:58:11.472Z,11.00
2018-08-28T15:00:39.954Z,12.10
2018-08-28T15:03:08.763Z,11.30
2018-08-28T15:05:37.312Z,11.13
2018-08-28T15:08:06.522Z,10.90
2018-08-28T15:10:35.641Z,11.13
2018-08-28T15:13:04.167Z,11.10
2018-08-28T15:15:32.673Z,10.47
2018-08-28T15:18:01.197Z,11.50
2018-08-28T15:20:29.649Z,11.57
2018-08-28T15:22:58.204Z,11.60
2018-08-28T15:25:26.857Z,11.00
2018-08-28T15:27:55.365Z,11.80
2018-08-28T15:30:23.838Z,11.30
2018-08-28T15:32:52.384Z,11.63
2018-08-28T15:35:20.860Z,10.40
2018-08-28T15:37:49.345Z,12.17
2018-08-28T15:40:18.467Z,11.50
2018-08-28T15:42:47.030Z,11.50
2018-08-28T15:45:15.544Z,10.90
2018-08-28T15:47:44.138Z,12.20
2018-08-28T15:50:12.784Z,10.50
2018-08-28T15:52:41.305Z,10.40
2018-08-28T15:55:09.833Z,12.67
2018-08-28T15:57:38.744Z,11.07
2018-08-28T16:00:07.668Z,11.30
2018-08-28T16:02:36.188Z,12.00
2018-08-28T16:05:06.261Z,10.30
2018-08-28T16:07:34.753Z,10.30
2018-08-28T16:10:03.305Z,11.17
2018-08-28T16:12:31.807Z,10.87
2018-08-28T16:15:00.375Z,11.57
2018-08-28T16:17:28.833Z,10.60
2018-08-28T16:19:57.434Z,10.33
2018-08-28T16:22:32.947Z,11.10
2018-08-28T16:25:01.504Z,11.77
2018-08-28T16:27:30.061Z,11.30
2018-08-28T16:29:58.577Z,11.10
2018-08-28T16:32:27.077Z,11.07
2018-08-28T16:34:55.569Z,11.33
2018-08-28T16:37:24.195Z,10.50
2018-08-28T16:39:52.661Z,11.40
2018-08-28T16:42:21.263Z,10.87
2018-08-28T16:44:49.697Z,11.17
2018-08-28T16:47:18.385Z,10.83
2018-08-28T16:49:47.045Z,11.37
2018-08-28T16:52:15.576Z,11.10
2018-08-28T16:54:44.355Z,12.43
2018-08-28T16:57:12.981Z,10.23
2018-08-28T16:59:41.523Z,11.30
2018-08-28T17:02:11.104Z,12.80
2018-08-28T17:04:39.768Z,12.60
2018-08-28T17:07:08.213Z,11.80
2018-08-28T17:09:36.692Z,10.77
2018-08-28T17:12:05.455Z,10.90
2018-08-28T17:14:33.958Z,11.23
2018-08-28T17:17:02.416Z,10.60
2018-08-28T17:19:30.921Z,11.23
2018-08-28T17:21:59.355Z,11.93
2018-08-28T17:24:27.839Z,11.40
2018-08-28T17:26:56.284Z,10.90
2018-08-28T17:29:25.618Z,10.63
2018-08-28T17:31:54.167Z,11.43
2018-08-28T17:34:22.813Z,11.17
2018-08-28T17:36:51.440Z,10.20
2018-08-28T17:39:19.920Z,11.97
2018-08-28T17:41:48.409Z,11.87
2018-08-28T17:44:17.705Z,12.20
2018-08-28T17:46:46.142Z,10.53
2018-08-28T17:49:14.677Z,9.70
2018-08-28T17:51:43.138Z,10.83
2018-08-28T17:54:12.316Z,10.23
2018-08-28T17:56:40.779Z,11.13
2018-08-28T17:59:09.345Z,10.50
2018-08-28T18:01:37.869Z,9.93
2018-08-28T18:04:06.388Z,10.57
2018-08-28T18:06:35.009Z,12.10
2018-08-28T18:09:04.676Z,12.97
2018-08-28T18:11:33.102Z,13.30
2018-08-28T18:14:01.586Z,13.57
2018-08-28T18:16:30.125Z,11.10
2018-08-28T18:18:59.195Z,12.27
2018-08-28T18:21:27.744Z,11.63
2018-08-28T18:23:56.352Z,10.73
2018-08-28T18:26:24.869Z,10.90
2018-08-28T18:28:53.388Z,11.10
2018-08-28T18:31:21.840Z,11.30
2018-08-28T18:33:50.388Z,11.87
2018-08-28T18:36:19.114Z,11.03
2018-08-28T18:38:47.668Z,10.03
2018-08-28T18:41:16.229Z,11.17
2018-08-28T18:43:44.694Z,11.20
2018-08-28T18:46:13.165Z,10.70
2018-08-28T18:48:41.709Z,10.90
2018-08-28T18:51:10.881Z,10.30
2018-08-28T18:53:39.454Z,11.00
2018-08-28T18:56:07.939Z,11.30
2018-08-28T18:58:36.359Z,10.87
2018-08-28T19:01:05.006Z,10.10
2018-08-28T19:03:33.679Z,10.97
2018-08-28T19:06:02.180Z,10.90
2018-08-28T19:08:30.695Z,10.60
2018-08-28T19:10:59.216Z,9.10
2018-08-28T19:13:28.112Z,9.20
2018-08-28T19:15:56.584Z,10.90
2018-08-28T19:18:25.140Z,10.60
2018-08-28T19:20:53.760Z,9.90
2018-08-28T19:23:22.201Z,10.33
2018-08-28T19:25:50.738Z,10.93
2018-08-28T19:28:19.348Z,9.57
2018-08-28T19:30:47.807Z,10.90
2018-08-28T19:33:16.351Z,10.50
2018-08-28T19:35:44.869Z,9.70
2018-08-28T19:38:13.460Z,10.53
2018-08-28T19:40:41.943Z,9.97
2018-08-28T19:43:10.850Z,9.47
2018-08-28T19:45:39.421Z,10.70
2018-08-28T19:48:07.937Z,10.07
2018-08-28T19:50:37.407Z,9.87
2018-08-28T19:53:06.394Z,10.47
2018-08-28T19:55:34.946Z,10.20
2018-08-28T19:58:03.580Z,10.87
2018-08-28T20:00:31.944Z,8.70
2018-08-28T20:03:00.570Z,9.43
2018-08-28T20:05:29.017Z,10.07
2018-08-28T20:07:57.560Z,9.53
2018-08-28T20:10:25.997Z,9.70
2018-08-28T20:12:54.456Z,10.73
2018-08-28T20:15:23.749Z,9.80
2018-08-28T20:17:52.291Z,10.80
2018-08-28T20:20:20.846Z,9.80
2018-08-28T20:22:49.429Z,10.40
2018-08-28T20:25:18.375Z,10.30
2018-08-28T20:27:46.849Z,9.97
2018-08-28T20:30:15.368Z,10.37
2018-08-28T20:32:43.837Z,11.00
2018-08-28T20:35:12.324Z,9.27
2018-08-28T20:37:40.823Z,10.17
2018-08-28T20:40:09.400Z,9.50
2018-08-28T20:42:38.715Z,9.63
2018-08-28T20:45:07.659Z,9.20
2018-08-28T20:47:36.090Z,8.97
2018-08-28T20:50:04.739Z,10.43
2018-08-28T20:52:33.523Z,11.50
2018-08-28T20:55:02.017Z,10.17
2018-08-28T20:57:30.476Z,9.73
2018-08-28T20:59:59.036Z,10.23
2018-08-28T21:02:28.156Z,10.17
2018-08-28T21:04:56.808Z,10.67
2018-08-28T21:07:25.261Z,10.53
2018-08-28T21:09:53.704Z,10.43
2018-08-28T21:12:22.186Z,10.43
2018-08-28T21:14:50.663Z,10.13
2018-08-28T21:17:19.145Z,10.40
2018-08-28T21:19:47.609Z,9.70
2018-08-28T21:22:16.153Z,9.30
2018-08-28T21:24:44.597Z,9.83
2018-08-28T21:27:13.094Z,9.83
2018-08-28T21:29:41.552Z,9.93
2018-08-28T21:32:10.209Z,10.63
2018-08-28T21:34:38.661Z,10.00
2018-08-28T21:37:07.260Z,10.60
2018-08-28T21:39:35.765Z,10.97
2018-08-28T21:42:04.339Z,9.23
2018-08-28T21:44:32.816Z,9.40
2018-08-28T21:47:01.342Z,9.27
2018-08-28T21:49:29.805Z,11.03
2018-08-28T21:51:58.271Z,11.40
2018-08-28T21:54:27.461Z,9.70
2018-08-28T21:56:56.030Z,10.40
2018-08-28T21:59:24.472Z,10.70
2018-08-28T22:01:52.939Z,10.20
2018-08-28T22:04:21.486Z,10.60
2018-08-28T22:06:55.334Z,9.87
2018-08-28T22:09:23.781Z,10.37
2018-08-28T22:11:52.336Z,10.57
2018-08-28T22:14:21.275Z,9.80
2018-08-28T22:16:49.779Z,9.23
2018-08-28T22:19:18.385Z,10.00
2018-08-28T22:21:46.844Z,10.70
2018-08-28T22:24:15.373Z,11.57
2018-08-28T22:26:43.874Z,9.70
2018-08-28T22:29:12.424Z,10.93
2018-08-28T22:31:40.900Z,10.50
2018-08-28T22:34:09.389Z,9.93
2018-08-28T22:36:37.884Z,10.67
2018-08-28T22:39:07.697Z,10.50
2018-08-28T22:41:36.352Z,11.60
2018-08-28T22:44:04.985Z,11.03
2018-08-28T22:46:33.458Z,11.03
2018-08-28T22:49:02.053Z,9.30
2018-08-28T22:51:30.536Z,9.60
2018-08-28T22:53:59.047Z,10.20
2018-08-28T22:56:27.734Z,10.37
2018-08-28T22:58:56.296Z,9.37
2018-08-28T23:01:24.834Z,10.37
2018-08-28T23:03:53.303Z,9.90
2018-08-28T23:06:22.544Z,9.60
2018-08-28T23:08:51.073Z,9.97
2018-08-28T23:11:19.541Z,9.90
2018-08-28T23:13:48.021Z,9.60
2018-08-28T23:16:17.057Z,10.43
2018-08-28T23:18:45.548Z,9.70
2018-08-28T23:21:14.064Z,10.63
2018-08-28T23:23:42.585Z,9.37
2018-08-28T23:26:11.011Z,9.40
2018-08-28T23:28:39.465Z,10.50
2018-08-28T23:31:08.013Z,9.03
2018-08-28T23:33:36.474Z,10.07
2018-08-28T23:36:05.615Z,9.40
2018-08-28T23:38:34.090Z,9.50
2018-08-28T23:41:02.515Z,9.73
2018-08-28T23:43:30.976Z,9.83
2018-08-28T23:45:59.443Z,9.57
2018-08-28T23:48:27.904Z,10.13
2018-08-28T23:50:56.374Z,9.10
2018-08-28T23:53:24.830Z,10.77
2018-08-28T23:55:53.275Z,9.73
2018-08-28T23:58:21.893Z,10.10
